Time;durP1;ratioP1;P1;durP2;ratioP2;P2;SDS_P1;SDS_P2;PMS_P1;PMS_P2;Temp;Humidity;BMP_temperature;BMP_pressure;BME280_temperature;BME280_humidity;BME280_pressure;Samples;Min_cycle;Max_cycle;Signal;HPM_P1;HPM_P2
2022/01/29 00:01:22;;;;;;;57.92;28.05;;;7.10;99.90;;;;;;5021502;28;20051;-43
2022/01/29 00:03:49;;;;;;;57.95;29.02;;;7.10;99.90;;;;;;5023510;28;20060;-42
2022/01/29 00:06:16;;;;;;;51.85;29.38;;;7.10;99.90;;;;;;5019730;28;20050;-42
2022/01/29 00:08:43;;;;;;;61.80;31.50;;;7.10;99.90;;;;;;5018326;28;20045;-42
2022/01/29 00:11:13;;;;;;;55.05;30.35;;;7.10;99.90;;;;;;5019911;28;20103;-44
2022/01/29 00:13:41;;;;;;;65.78;31.83;;;7.10;99.90;;;;;;5022871;28;20041;-43
2022/01/29 00:16:08;;;;;;;64.22;32.10;;;7.10;99.90;;;;;;5027874;28;20061;-43
2022/01/29 00:18:34;;;;;;;65.95;32.90;;;7.00;99.90;;;;;;5025179;28;20045;-43
2022/01/29 00:21:01;;;;;;;67.32;35.80;;;7.10;99.90;;;;;;5021831;28;20053;-44
2022/01/29 00:23:28;;;;;;;63.78;35.25;;;7.00;99.90;;;;;;5023315;28;20050;-42
2022/01/29 00:25:54;;;;;;;66.95;34.75;;;7.10;99.90;;;;;;5021112;28;20128;-43
2022/01/29 00:28:21;;;;;;;72.10;35.20;;;7.00;99.90;;;;;;5027468;28;20056;-43
2022/01/29 00:30:49;;;;;;;69.18;36.65;;;7.00;99.90;;;;;;5023342;28;20074;-42
2022/01/29 00:33:16;;;;;;;65.85;37.72;;;7.00;99.90;;;;;;5026967;28;20057;-43
2022/01/29 00:35:42;;;;;;;83.57;40.00;;;7.00;99.90;;;;;;5021221;28;20127;-42
2022/01/29 00:38:09;;;;;;;71.25;37.33;;;7.00;99.90;;;;;;5022277;28;20052;-43
2022/01/29 00:40:37;;;;;;;76.57;38.78;;;7.00;99.90;;;;;;5025191;28;20046;-42
2022/01/29 00:43:04;;;;;;;66.95;37.13;;;7.00;99.90;;;;;;5021976;28;20144;-43
2022/01/29 00:45:31;;;;;;;71.47;38.78;;;7.00;99.90;;;;;;5018479;28;20103;-42
2022/01/29 00:47:59;;;;;;;65.45;37.50;;;7.00;99.90;;;;;;5021911;28;20928;-43
2022/01/29 00:50:26;;;;;;;78.20;39.35;;;7.00;99.90;;;;;;5028175;28;20072;-42
2022/01/29 00:52:52;;;;;;;72.07;38.80;;;7.00;99.90;;;;;;5023706;28;20046;-42
2022/01/29 00:55:19;;;;;;;75.65;38.17;;;7.00;99.90;;;;;;5023182;28;20064;-41
2022/01/29 00:57:46;;;;;;;70.18;38.00;;;7.00;99.90;;;;;;5027605;28;20096;-42
2022/01/29 01:00:13;;;;;;;75.25;39.08;;;7.00;99.90;;;;;;5021360;28;20088;-41
2022/01/29 01:02:40;;;;;;;69.20;37.47;;;7.00;99.90;;;;;;5030195;28;20042;-42
2022/01/29 01:05:09;;;;;;;73.68;37.00;;;7.00;99.90;;;;;;5025505;28;20096;-42
2022/01/29 01:07:36;;;;;;;65.72;37.53;;;6.90;99.90;;;;;;5025191;28;20050;-41
2022/01/29 01:10:02;;;;;;;66.40;37.00;;;7.00;99.90;;;;;;5026033;28;20506;-41
2022/01/29 01:12:29;;;;;;;69.07;38.08;;;7.00;99.90;;;;;;5028108;28;20050;-41
2022/01/29 01:14:56;;;;;;;68.93;36.75;;;7.00;99.90;;;;;;5023053;28;20052;-41
2022/01/29 01:17:22;;;;;;;70.50;37.47;;;7.00;99.90;;;;;;5027704;28;20132;-40
2022/01/29 01:19:49;;;;;;;59.22;34.00;;;7.00;99.90;;;;;;5017378;28;20054;-40
2022/01/29 01:22:17;;;;;;;65.20;35.97;;;7.00;99.90;;;;;;5026685;28;20405;-39
2022/01/29 01:24:44;;;;;;;65.30;36.10;;;7.00;99.90;;;;;;5022400;28;20143;-40
2022/01/29 01:27:11;;;;;;;67.78;35.80;;;7.00;99.90;;;;;;5028619;28;20144;-40
2022/01/29 01:29:37;;;;;;;64.80;36.05;;;7.00;99.90;;;;;;5028410;28;20045;-40
2022/01/29 01:32:10;;;;;;;63.67;35.20;;;7.00;99.90;;;;;;5027537;28;20524;-40
2022/01/29 01:34:40;;;;;;;67.65;34.30;;;7.00;99.90;;;;;;5028774;28;20049;-40
2022/01/29 01:37:10;;;;;;;66.88;35.70;;;7.00;99.90;;;;;;5023690;28;20053;-40
2022/01/29 01:39:40;;;;;;;62.67;33.55;;;7.10;99.90;;;;;;5024922;28;20054;-40
2022/01/29 01:42:08;;;;;;;53.17;32.03;;;7.00;99.90;;;;;;5027018;28;20049;-40
2022/01/29 01:44:36;;;;;;;62.38;34.58;;;7.00;99.90;;;;;;5016534;28;20061;-40
2022/01/29 01:47:03;;;;;;;66.72;33.78;;;7.00;99.90;;;;;;5013763;28;20049;-40
2022/01/29 01:49:29;;;;;;;61.08;34.05;;;7.10;99.90;;;;;;5017518;28;20108;-40
2022/01/29 01:51:56;;;;;;;62.75;32.42;;;7.10;99.90;;;;;;5032256;28;20060;-40
2022/01/29 01:54:23;;;;;;;63.30;32.97;;;7.10;99.90;;;;;;5025047;28;20485;-40
2022/01/29 01:56:51;;;;;;;59.63;34.83;;;7.10;99.90;;;;;;5016160;28;20053;-40
2022/01/29 01:59:18;;;;;;;65.80;33.35;;;7.10;99.90;;;;;;5015977;28;20128;-40
2022/01/29 02:01:50;;;;;;;70.03;34.63;;;7.10;99.90;;;;;;5023791;28;20077;-40
2022/01/29 02:04:16;;;;;;;71.40;37.05;;;7.10;99.90;;;;;;5026578;28;20050;-40
2022/01/29 02:06:43;;;;;;;66.45;34.72;;;7.10;99.90;;;;;;5021219;28;20049;-40
2022/01/29 02:09:13;;;;;;;64.63;34.65;;;7.10;99.90;;;;;;5025782;28;20049;-40
2022/01/29 02:11:51;;;;;;;70.30;33.97;;;7.10;99.90;;;;;;5019669;28;20042;-41
2022/01/29 02:14:18;;;;;;;76.95;35.50;;;7.10;99.90;;;;;;5019461;28;20397;-41
2022/01/29 02:16:44;;;;;;;69.28;36.70;;;7.10;99.90;;;;;;5032015;28;20144;-41
2022/01/29 02:19:11;;;;;;;66.13;35.33;;;7.10;99.90;;;;;;5014384;28;20061;-41
2022/01/29 02:21:39;;;;;;;75.22;37.42;;;7.20;99.90;;;;;;5018117;28;20055;-41
2022/01/29 02:24:06;;;;;;;76.35;36.03;;;7.10;99.90;;;;;;5027343;28;20125;-41
2022/01/29 02:26:32;;;;;;;70.55;35.50;;;7.10;99.90;;;;;;5016256;28;20050;-41
2022/01/29 02:28:59;;;;;;;83.38;37.55;;;7.10;99.90;;;;;;5027888;28;20058;-41
2022/01/29 02:31:26;;;;;;;78.07;37.85;;;7.20;99.90;;;;;;5023819;28;20049;-41
2022/01/29 02:33:53;;;;;;;81.97;38.25;;;7.20;99.90;;;;;;5024521;28;20049;-41
2022/01/29 02:36:19;;;;;;;68.68;33.60;;;7.10;99.90;;;;;;5014665;28;20057;-41
2022/01/29 02:38:47;;;;;;;70.43;36.05;;;7.20;99.90;;;;;;5027028;28;20125;-41
2022/01/29 02:41:14;;;;;;;66.75;34.33;;;7.20;99.90;;;;;;5021376;28;20470;-41
2022/01/29 02:43:45;;;;;;;75.90;35.00;;;7.20;99.90;;;;;;5023198;28;20053;-41
2022/01/29 02:46:21;;;;;;;70.25;33.13;;;7.20;99.90;;;;;;5021867;28;20061;-41
2022/01/29 02:48:50;;;;;;;78.03;36.03;;;7.20;99.90;;;;;;5026240;28;20071;-41
2022/01/29 02:51:16;;;;;;;65.47;32.88;;;7.20;99.90;;;;;;5028933;28;20394;-41
2022/01/29 02:53:43;;;;;;;70.63;33.58;;;7.20;99.90;;;;;;5028615;28;20046;-42
2022/01/29 02:56:11;;;;;;;72.72;34.17;;;7.20;99.90;;;;;;5022021;28;20422;-41
2022/01/29 02:58:38;;;;;;;73.47;34.30;;;7.30;99.90;;;;;;5029270;28;20049;-42
2022/01/29 03:01:05;;;;;;;67.72;32.08;;;7.30;99.90;;;;;;5015414;28;20048;-42
2022/01/29 03:03:32;;;;;;;73.43;32.85;;;7.30;99.90;;;;;;5028632;28;20490;-41
2022/01/29 03:05:58;;;;;;;78.68;32.78;;;7.40;99.90;;;;;;5025085;28;20053;-42
2022/01/29 03:08:25;;;;;;;73.85;31.48;;;7.30;99.90;;;;;;5024568;28;20100;-42
2022/01/29 03:10:52;;;;;;;82.53;33.00;;;7.40;99.90;;;;;;5025348;28;20049;-42
2022/01/29 03:13:20;;;;;;;75.28;32.08;;;7.40;99.90;;;;;;5019099;28;20042;-43
2022/01/29 03:15:46;;;;;;;65.35;28.50;;;7.50;99.90;;;;;;5022269;28;20049;-42
2022/01/29 03:18:13;;;;;;;75.55;29.65;;;7.50;99.90;;;;;;5027857;28;20051;-42
2022/01/29 03:20:40;;;;;;;63.83;28.42;;;7.50;99.90;;;;;;5017602;28;20060;-42
2022/01/29 03:23:06;;;;;;;61.40;28.40;;;7.50;99.90;;;;;;5018502;28;20045;-42
2022/01/29 03:25:33;;;;;;;57.05;27.67;;;7.60;99.90;;;;;;5025311;28;20042;-42
2022/01/29 03:28:00;;;;;;;72.95;28.63;;;7.60;99.90;;;;;;5022968;28;20060;-42
2022/01/29 03:30:28;;;;;;;65.22;28.35;;;7.60;99.90;;;;;;5021119;28;20037;-42
2022/01/29 03:32:54;;;;;;;60.95;27.70;;;7.70;99.90;;;;;;5020993;28;20047;-42
2022/01/29 03:35:21;;;;;;;60.17;29.00;;;7.70;99.90;;;;;;5026302;28;20056;-42
2022/01/29 03:37:48;;;;;;;59.72;27.02;;;7.70;99.90;;;;;;5023852;28;20508;-42
2022/01/29 03:40:14;;;;;;;59.38;26.30;;;7.80;99.90;;;;;;5021024;28;20071;-42
2022/01/29 03:42:45;;;;;;;56.95;27.38;;;7.80;99.90;;;;;;5022589;28;20145;-42
2022/01/29 03:45:14;;;;;;;54.05;25.48;;;7.80;99.90;;;;;;5011717;28;20054;-42
2022/01/29 03:47:42;;;;;;;60.67;28.13;;;7.80;99.90;;;;;;5014608;28;20142;-43
2022/01/29 03:50:09;;;;;;;65.40;26.67;;;7.80;99.90;;;;;;5028229;28;20053;-42
2022/01/29 03:52:36;;;;;;;56.47;25.55;;;7.80;99.90;;;;;;5023056;28;20056;-43
2022/01/29 03:55:05;;;;;;;50.85;25.38;;;7.90;99.90;;;;;;5016107;28;20417;-42
2022/01/29 03:57:32;;;;;;;62.28;26.48;;;7.90;99.90;;;;;;5022297;28;20058;-42
2022/01/29 03:59:58;;;;;;;56.35;28.00;;;7.90;99.90;;;;;;5023822;28;20750;-42
2022/01/29 04:02:25;;;;;;;53.90;28.27;;;7.90;99.90;;;;;;5028681;28;20071;-42
2022/01/29 04:04:53;;;;;;;59.17;26.80;;;7.90;99.90;;;;;;5018705;28;20053;-43
2022/01/29 04:07:20;;;;;;;60.13;27.00;;;7.90;99.90;;;;;;5025892;28;20428;-43
2022/01/29 04:09:49;;;;;;;62.63;27.17;;;7.90;99.90;;;;;;5028765;28;20132;-42
2022/01/29 04:12:16;;;;;;;57.70;25.40;;;8.00;99.90;;;;;;5024040;28;20077;-42
2022/01/29 04:14:43;;;;;;;58.22;26.70;;;7.90;99.90;;;;;;5020832;28;20470;-43
2022/01/29 04:17:11;;;;;;;59.63;27.27;;;8.00;99.90;;;;;;5031528;28;20080;-43
2022/01/29 04:19:38;;;;;;;64.47;29.08;;;7.90;99.90;;;;;;5029908;28;20533;-43
2022/01/29 04:22:06;;;;;;;61.45;28.15;;;7.90;99.90;;;;;;5047299;28;20079;-43
2022/01/29 04:24:33;;;;;;;57.08;26.70;;;7.90;99.90;;;;;;5016395;28;20065;-42
2022/01/29 04:27:01;;;;;;;66.28;28.17;;;8.00;99.90;;;;;;5032850;28;20046;-44
2022/01/29 04:29:36;;;;;;;65.07;27.42;;;8.00;99.90;;;;;;5031053;28;20508;-44
2022/01/29 04:32:10;;;;;;;60.10;27.13;;;7.90;99.90;;;;;;5030137;28;20061;-43
2022/01/29 04:34:36;;;;;;;54.60;27.52;;;8.00;99.90;;;;;;5027111;28;20054;-42
2022/01/29 04:37:03;;;;;;;61.95;26.75;;;8.00;99.90;;;;;;5027266;28;20064;-42
2022/01/29 04:39:32;;;;;;;54.22;27.73;;;8.00;99.90;;;;;;5027636;28;20051;-43
2022/01/29 04:41:58;;;;;;;52.85;26.25;;;8.00;99.90;;;;;;5047227;28;20128;-42
2022/01/29 04:44:25;;;;;;;60.40;26.92;;;8.00;99.90;;;;;;5027146;28;20379;-44
2022/01/29 04:46:52;;;;;;;61.88;26.98;;;8.00;99.90;;;;;;5031001;28;20060;-42
2022/01/29 04:49:18;;;;;;;52.88;26.45;;;8.00;99.90;;;;;;5030295;28;20054;-42
2022/01/29 04:51:45;;;;;;;56.35;25.88;;;8.00;99.90;;;;;;5018866;28;20056;-43
2022/01/29 04:54:12;;;;;;;56.15;25.15;;;8.00;99.90;;;;;;5023560;28;20055;-42
2022/01/29 04:56:40;;;;;;;62.53;24.95;;;8.10;99.90;;;;;;5026068;28;20509;-43
2022/01/29 04:59:06;;;;;;;56.13;26.25;;;8.10;99.90;;;;;;5031602;28;20056;-43
2022/01/29 05:01:33;;;;;;;56.78;25.27;;;8.10;99.90;;;;;;5026409;28;20052;-42
2022/01/29 05:03:59;;;;;;;52.05;24.27;;;8.10;99.90;;;;;;5029220;28;20578;-42
2022/01/29 05:06:26;;;;;;;47.03;24.60;;;8.10;99.90;;;;;;5020164;28;20474;-42
2022/01/29 05:08:53;;;;;;;51.80;25.08;;;8.10;99.90;;;;;;5023151;28;20049;-42
2022/01/29 05:11:19;;;;;;;48.90;23.90;;;8.10;99.90;;;;;;5026874;28;20049;-42
2022/01/29 05:13:48;;;;;;;52.50;23.88;;;8.10;99.90;;;;;;5029297;28;20064;-42
2022/01/29 05:27:17;;;;;;;47.70;23.85;;;8.20;99.90;;;;;;5018932;28;20049;-42
2022/01/29 05:29:45;;;;;;;50.88;24.15;;;8.20;99.90;;;;;;5019971;28;20406;-42
2022/01/29 05:32:12;;;;;;;56.83;25.05;;;8.20;99.90;;;;;;5023178;28;20065;-43
2022/01/29 05:34:40;;;;;;;50.10;24.77;;;8.20;99.90;;;;;;5020901;28;20041;-42
2022/01/29 05:37:07;;;;;;;51.90;24.95;;;8.20;99.90;;;;;;5027898;28;20060;-43
2022/01/29 05:39:34;;;;;;;51.30;23.98;;;8.20;99.90;;;;;;5020215;28;20094;-43
2022/01/29 05:42:00;;;;;;;56.30;22.92;;;8.20;99.90;;;;;;5022630;28;20064;-42
2022/01/29 05:44:27;;;;;;;41.45;22.92;;;8.20;99.90;;;;;;5023506;28;20050;-41
2022/01/29 05:46:55;;;;;;;48.67;23.15;;;8.30;99.90;;;;;;5024314;28;20397;-41
2022/01/29 05:49:22;;;;;;;45.65;23.45;;;8.30;99.90;;;;;;5025855;28;20045;-40
2022/01/29 05:51:49;;;;;;;40.45;23.33;;;8.30;99.90;;;;;;5023573;28;20053;-41
2022/01/29 05:54:15;;;;;;;43.92;22.95;;;8.30;99.90;;;;;;5027145;28;20060;-41
2022/01/29 05:56:42;;;;;;;44.03;21.83;;;8.30;99.90;;;;;;5026746;28;20141;-44
2022/01/29 05:59:09;;;;;;;47.83;21.65;;;8.30;99.90;;;;;;5027896;28;20049;-41
2022/01/29 06:01:36;;;;;;;47.90;21.02;;;8.30;99.90;;;;;;5031515;28;20397;-41
2022/01/29 06:04:06;;;;;;;41.38;21.75;;;8.30;99.90;;;;;;5025110;28;20520;-42
2022/01/29 06:06:32;;;;;;;46.40;21.45;;;8.30;99.90;;;;;;5018593;28;20104;-41
2022/01/29 06:09:01;;;;;;;42.05;21.55;;;8.30;99.90;;;;;;5021493;28;20052;-41
2022/01/29 06:11:28;;;;;;;43.45;20.35;;;8.40;99.90;;;;;;5013880;28;20057;-41
2022/01/29 06:13:54;;;;;;;40.08;21.25;;;8.30;99.90;;;;;;5017784;28;20055;-41
2022/01/29 06:16:21;;;;;;;39.97;20.27;;;8.40;99.90;;;;;;5031900;28;20052;-41
2022/01/29 06:18:48;;;;;;;40.90;19.17;;;8.40;99.90;;;;;;5018734;28;20045;-41
2022/01/29 06:21:16;;;;;;;36.17;18.88;;;8.40;99.90;;;;;;5031317;28;20060;-41
2022/01/29 06:23:43;;;;;;;35.22;17.40;;;8.40;99.90;;;;;;5031811;28;20053;-41
2022/01/29 06:26:12;;;;;;;37.92;18.65;;;8.40;99.90;;;;;;5024414;28;20052;-41
2022/01/29 06:28:39;;;;;;;35.83;17.40;;;8.40;99.90;;;;;;5019197;28;20048;-41
2022/01/29 06:31:06;;;;;;;33.38;16.83;;;8.40;99.90;;;;;;5028373;28;20057;-42
2022/01/29 06:33:33;;;;;;;28.48;16.27;;;8.50;99.90;;;;;;5022457;28;20050;-41
2022/01/29 06:36:00;;;;;;;28.58;16.08;;;8.40;99.90;;;;;;5030983;28;20049;-41
2022/01/29 06:38:28;;;;;;;35.92;16.17;;;8.40;99.90;;;;;;5019899;28;20141;-42
2022/01/29 06:40:55;;;;;;;33.10;15.60;;;8.40;99.90;;;;;;5024431;28;20045;-42
2022/01/29 06:43:21;;;;;;;32.22;16.30;;;8.50;99.90;;;;;;5027353;28;20504;-42
2022/01/29 06:45:48;;;;;;;25.10;14.00;;;8.50;99.90;;;;;;5028189;28;20045;-42
2022/01/29 06:48:15;;;;;;;33.40;14.40;;;8.50;99.90;;;;;;5019065;28;20059;-42
2022/01/29 06:50:42;;;;;;;25.27;13.93;;;8.60;99.90;;;;;;5027005;28;20045;-43
2022/01/29 06:53:09;;;;;;;30.83;14.93;;;8.60;99.90;;;;;;5021015;28;20058;-41
2022/01/29 06:55:37;;;;;;;28.92;14.43;;;8.60;99.90;;;;;;5028356;28;20053;-42
2022/01/29 06:58:03;;;;;;;30.00;14.85;;;8.60;99.90;;;;;;5021250;28;20056;-42
2022/01/29 07:00:30;;;;;;;30.05;14.68;;;8.60;99.90;;;;;;5024396;28;20056;-43
2022/01/29 07:02:57;;;;;;;35.92;14.00;;;8.60;99.90;;;;;;5026646;28;20060;-42
2022/01/29 07:05:24;;;;;;;31.17;14.45;;;8.60;99.90;;;;;;5024893;28;20053;-42
2022/01/29 07:07:50;;;;;;;31.00;15.60;;;8.60;99.90;;;;;;5019372;28;20056;-43
2022/01/29 07:10:17;;;;;;;33.10;14.60;;;8.70;99.90;;;;;;5016899;28;20057;-42
2022/01/29 07:12:45;;;;;;;36.35;15.73;;;8.70;99.90;;;;;;5026335;28;20549;-42
2022/01/29 07:15:12;;;;;;;36.53;15.50;;;8.70;99.90;;;;;;5019065;28;20065;-42
2022/01/29 07:17:39;;;;;;;30.83;15.77;;;8.70;99.90;;;;;;5022072;28;20125;-44
2022/01/29 07:20:07;;;;;;;27.63;15.15;;;8.70;99.90;;;;;;5023999;28;20061;-43
2022/01/29 07:22:34;;;;;;;35.70;17.13;;;8.70;99.90;;;;;;5030682;28;20401;-42
2022/01/29 07:25:00;;;;;;;33.72;15.57;;;8.70;99.90;;;;;;5018301;28;20550;-43
2022/01/29 07:27:27;;;;;;;28.42;15.02;;;8.70;99.90;;;;;;5019293;28;20496;-42
2022/01/29 07:29:55;;;;;;;34.38;15.77;;;8.70;99.90;;;;;;5027150;28;20406;-41
2022/01/29 07:32:21;;;;;;;33.45;15.57;;;8.80;99.90;;;;;;5025209;28;20056;-42
2022/01/29 07:34:48;;;;;;;34.55;16.38;;;8.70;99.90;;;;;;5018078;28;20055;-42
2022/01/29 07:37:15;;;;;;;37.72;17.55;;;8.70;99.90;;;;;;5029469;28;20057;-44
2022/01/29 07:39:41;;;;;;;33.65;15.90;;;8.70;99.90;;;;;;5018827;28;20129;-43
2022/01/29 07:42:09;;;;;;;37.13;17.45;;;8.70;99.90;;;;;;5023824;28;20054;-43
2022/01/29 07:44:36;;;;;;;35.00;16.88;;;8.70;99.90;;;;;;5024586;28;20058;-42
2022/01/29 07:47:04;;;;;;;30.83;16.90;;;8.70;99.90;;;;;;5023621;28;20482;-42
2022/01/29 07:49:31;;;;;;;32.45;16.65;;;8.70;99.90;;;;;;5043652;28;20057;-43
2022/01/29 07:51:58;;;;;;;34.80;15.90;;;8.70;99.90;;;;;;5024572;28;20058;-43
2022/01/29 07:54:24;;;;;;;30.52;15.38;;;8.70;99.90;;;;;;5019575;28;20061;-40
2022/01/29 07:56:51;;;;;;;31.55;15.00;;;8.70;99.90;;;;;;5019155;28;20073;-42
2022/01/29 07:59:18;;;;;;;29.08;14.65;;;8.70;99.90;;;;;;5019445;28;20048;-43
2022/01/29 08:01:44;;;;;;;29.90;14.48;;;8.70;99.90;;;;;;5021956;28;20517;-42
2022/01/29 08:04:12;;;;;;;25.95;14.05;;;8.70;99.90;;;;;;5023553;28;20129;-44
2022/01/29 08:06:39;;;;;;;33.58;14.85;;;8.80;99.90;;;;;;5017123;28;20041;-44
2022/01/29 08:09:08;;;;;;;33.28;14.10;;;8.80;99.90;;;;;;5025285;28;20068;-43
2022/01/29 08:11:35;;;;;;;32.22;14.18;;;8.90;99.90;;;;;;5023753;28;20120;-43
2022/01/29 08:14:01;;;;;;;23.95;13.13;;;8.80;99.90;;;;;;5020692;28;20050;-43
2022/01/29 08:16:28;;;;;;;25.45;13.23;;;8.80;99.90;;;;;;5026421;28;20059;-42
2022/01/29 08:18:55;;;;;;;24.13;13.85;;;8.90;99.90;;;;;;5019961;28;20053;-43
2022/01/29 08:21:23;;;;;;;28.45;13.70;;;8.90;99.90;;;;;;5019344;28;20521;-43
2022/01/29 08:23:49;;;;;;;28.92;13.02;;;8.90;99.90;;;;;;5023586;28;20060;-43
2022/01/29 08:26:16;;;;;;;25.23;12.15;;;8.90;99.90;;;;;;5021072;28;20048;-43
2022/01/29 08:28:43;;;;;;;20.40;11.15;;;8.90;99.90;;;;;;5020830;28;20056;-43
2022/01/29 08:31:10;;;;;;;20.67;9.68;;;9.00;99.90;;;;;;5025752;28;20054;-43
2022/01/29 08:33:36;;;;;;;18.23;9.73;;;9.00;99.90;;;;;;5029864;28;20064;-44
2022/01/29 08:36:04;;;;;;;19.58;9.75;;;9.00;99.90;;;;;;5022234;28;20085;-43
2022/01/29 08:38:32;;;;;;;18.42;9.15;;;9.00;99.90;;;;;;5030024;28;20509;-46
2022/01/29 08:40:59;;;;;;;16.63;8.43;;;9.00;99.90;;;;;;5018208;28;20056;-43
2022/01/29 08:43:26;;;;;;;18.70;8.38;;;9.10;99.90;;;;;;5023763;28;20068;-43
2022/01/29 08:45:53;;;;;;;15.73;8.63;;;9.10;99.90;;;;;;5022654;28;20129;-42
2022/01/29 08:48:20;;;;;;;18.42;7.88;;;9.10;99.90;;;;;;5023477;28;20048;-43
2022/01/29 08:50:46;;;;;;;17.52;7.78;;;9.10;99.90;;;;;;5021580;28;20050;-42
2022/01/29 08:53:13;;;;;;;16.80;7.55;;;9.20;99.90;;;;;;5025235;28;20403;-43
2022/01/29 08:55:41;;;;;;;17.98;8.20;;;9.20;99.90;;;;;;5021780;28;20054;-42
2022/01/29 08:58:08;;;;;;;13.55;7.35;;;9.20;99.90;;;;;;5030125;28;20128;-44
2022/01/29 09:00:35;;;;;;;17.52;7.63;;;9.20;99.90;;;;;;5023679;28;20045;-43
2022/01/29 09:03:02;;;;;;;18.17;7.70;;;9.30;99.90;;;;;;5024734;28;20156;-44
2022/01/29 09:05:29;;;;;;;17.60;8.13;;;9.30;99.90;;;;;;5026574;28;20065;-44
2022/01/29 09:07:55;;;;;;;33.72;17.17;;;9.30;99.90;;;;;;5028195;28;20045;-44
2022/01/29 09:10:22;;;;;;;18.20;9.57;;;9.30;99.90;;;;;;5021978;28;20053;-42
2022/01/29 09:12:50;;;;;;;20.33;8.82;;;9.30;99.90;;;;;;5026375;28;20048;-43
2022/01/29 09:15:17;;;;;;;19.05;7.72;;;9.30;99.90;;;;;;5023344;28;20045;-45
2022/01/29 09:17:44;;;;;;;19.67;7.85;;;9.40;99.90;;;;;;5021671;28;20425;-44
2022/01/29 09:20:11;;;;;;;19.88;7.72;;;9.30;99.90;;;;;;5022015;28;20055;-43
2022/01/29 09:22:38;;;;;;;22.75;8.10;;;9.40;99.90;;;;;;5022532;28;20124;-44
2022/01/29 09:25:05;;;;;;;14.95;8.00;;;9.40;99.90;;;;;;5022549;28;20053;-43
2022/01/29 09:27:32;;;;;;;17.45;7.05;;;9.40;99.90;;;;;;5022604;28;20068;-44
2022/01/29 09:30:00;;;;;;;20.05;7.85;;;9.40;99.90;;;;;;5020353;28;20054;-44
2022/01/29 09:32:27;;;;;;;16.08;7.70;;;9.40;99.90;;;;;;5030168;28;20569;-43
2022/01/29 09:34:54;;;;;;;16.50;7.10;;;9.50;99.90;;;;;;5027824;28;20080;-43
2022/01/29 09:37:21;;;;;;;19.25;7.53;;;9.50;99.90;;;;;;5021841;28;20057;-44
2022/01/29 09:39:48;;;;;;;18.40;7.50;;;9.50;99.90;;;;;;5020722;28;20060;-44
2022/01/29 09:42:15;;;;;;;16.13;6.50;;;9.50;99.90;;;;;;5016074;28;20145;-43
2022/01/29 09:44:42;;;;;;;15.60;6.25;;;9.60;99.90;;;;;;5025820;28;20133;-41
2022/01/29 09:47:10;;;;;;;14.00;6.35;;;9.60;99.90;;;;;;5024978;28;20084;-44
2022/01/29 09:49:37;;;;;;;14.70;6.10;;;9.60;99.90;;;;;;5030034;28;20128;-44
2022/01/29 09:52:04;;;;;;;16.50;5.45;;;9.70;99.90;;;;;;5021657;28;20097;-43
2022/01/29 09:54:31;;;;;;;19.25;6.15;;;9.70;99.90;;;;;;5020615;28;20051;-44
2022/01/29 09:56:57;;;;;;;12.73;5.63;;;9.70;99.90;;;;;;5023033;28;20420;-44
2022/01/29 09:59:24;;;;;;;12.77;5.00;;;9.70;99.90;;;;;;5022472;28;20060;-43
2022/01/29 10:01:51;;;;;;;14.65;5.00;;;9.80;99.90;;;;;;5027854;28;20045;-45
2022/01/29 10:04:19;;;;;;;13.88;5.32;;;9.80;99.90;;;;;;5026638;28;20408;-42
2022/01/29 10:06:47;;;;;;;13.57;5.70;;;9.70;99.90;;;;;;5026432;28;20142;-43
2022/01/29 10:09:32;;;;;;;16.83;6.10;;;9.80;99.90;;;;;;5015545;28;20490;-43
2022/01/29 10:12:17;;;;;;;20.10;6.20;;;9.80;99.90;;;;;;5026913;28;20522;-43
2022/01/29 10:14:48;;;;;;;18.48;6.13;;;9.80;99.90;;;;;;5024652;28;20045;-42
2022/01/29 10:17:36;;;;;;;14.07;5.63;;;9.90;99.90;;;;;;5026577;28;20079;-42
2022/01/29 10:20:17;;;;;;;16.00;5.90;;;9.90;99.90;;;;;;5022879;28;20052;-45
2022/01/29 10:22:45;;;;;;;17.75;6.07;;;9.90;99.90;;;;;;5024156;28;20046;-43
2022/01/29 10:25:13;;;;;;;22.23;6.20;;;9.90;99.90;;;;;;5026533;28;20056;-43
2022/01/29 10:27:40;;;;;;;19.30;5.70;;;9.90;99.90;;;;;;5027328;28;20129;-43
2022/01/29 10:30:10;;;;;;;16.73;5.93;;;9.90;99.90;;;;;;5023964;28;20077;-43
2022/01/29 10:32:36;;;;;;;13.75;5.00;;;9.90;99.90;;;;;;5030236;28;20056;-43
2022/01/29 10:35:03;;;;;;;11.82;4.85;;;9.90;99.90;;;;;;5020525;28;20054;-44
2022/01/29 10:37:31;;;;;;;12.85;4.03;;;10.00;99.90;;;;;;5027059;28;20405;-44
2022/01/29 10:39:59;;;;;;;16.63;4.10;;;10.00;99.90;;;;;;5027685;28;20058;-44
2022/01/29 10:42:27;;;;;;;15.32;4.38;;;10.00;99.90;;;;;;5018637;28;20136;-43
2022/01/29 10:44:55;;;;;;;15.73;4.65;;;10.00;99.90;;;;;;5024454;28;20490;-44
2022/01/29 10:47:22;;;;;;;13.45;4.28;;;10.00;99.90;;;;;;5016288;28;20060;-46
2022/01/29 10:49:53;;;;;;;13.85;3.83;;;10.10;99.90;;;;;;5029686;28;20045;-45
2022/01/29 10:52:27;;;;;;;14.13;3.75;;;10.10;99.90;;;;;;5028562;28;20059;-43
2022/01/29 10:54:59;;;;;;;10.68;3.35;;;10.10;99.90;;;;;;5022095;28;20045;-44
2022/01/29 10:57:31;;;;;;;16.42;4.00;;;10.10;99.90;;;;;;5029158;28;20050;-43
2022/01/29 10:59:58;;;;;;;14.75;3.80;;;10.10;99.90;;;;;;5030943;28;20405;-43
2022/01/29 11:02:27;;;;;;;18.08;4.50;;;10.10;99.90;;;;;;5024347;28;20060;-44
2022/01/29 11:04:54;;;;;;;12.43;3.47;;;10.10;99.90;;;;;;5017487;28;20101;-44
2022/01/29 11:07:27;;;;;;;14.65;3.55;;;10.10;99.90;;;;;;5027376;28;20133;-44
2022/01/29 11:09:55;;;;;;;11.82;2.80;;;10.20;99.90;;;;;;5025820;28;20494;-43
2022/01/29 11:12:23;;;;;;;11.95;3.13;;;10.20;99.90;;;;;;5019472;28;20042;-44
2022/01/29 11:14:51;;;;;;;13.13;3.38;;;10.20;99.90;;;;;;5019559;28;20080;-43
2022/01/29 11:17:18;;;;;;;13.00;3.08;;;10.20;99.90;;;;;;5025403;28;20103;-43
2022/01/29 11:19:45;;;;;;;12.52;4.10;;;10.20;99.90;;;;;;5016710;28;20092;-43
2022/01/29 11:22:12;;;;;;;14.13;3.75;;;10.20;99.90;;;;;;5022123;28;20393;-43
2022/01/29 11:24:40;;;;;;;11.38;3.63;;;10.10;99.90;;;;;;5028359;28;20057;-43
2022/01/29 11:27:21;;;;;;;14.02;3.00;;;10.20;99.90;;;;;;5022709;28;20500;-44
2022/01/29 11:29:59;;;;;;;12.70;3.63;;;10.20;99.90;;;;;;5027285;28;20393;-44
2022/01/29 11:32:32;;;;;;;19.92;3.85;;;10.20;99.90;;;;;;5015268;28;20057;-43
2022/01/29 11:35:13;;;;;;;20.70;4.30;;;10.20;99.90;;;;;;5016184;28;20563;-43
2022/01/29 11:37:42;;;;;;;13.32;3.10;;;10.20;99.90;;;;;;5021622;28;20449;-43
2022/01/29 11:40:13;;;;;;;15.13;3.80;;;10.20;99.90;;;;;;5027136;28;20049;-44
2022/01/29 11:42:59;;;;;;;16.70;3.30;;;10.20;99.90;;;;;;5023590;28;20445;-48
2022/01/29 11:45:39;;;;;;;15.45;3.53;;;10.20;99.90;;;;;;5020526;28;20141;-44
2022/01/29 11:48:07;;;;;;;17.15;3.28;;;10.20;99.90;;;;;;5020858;28;20140;-44
2022/01/29 11:50:48;;;;;;;12.30;3.35;;;10.30;99.90;;;;;;5020767;28;20050;-44
2022/01/29 11:53:16;;;;;;;17.33;3.30;;;10.20;99.90;;;;;;5022345;28;20148;-44
2022/01/29 11:55:44;;;;;;;15.77;3.30;;;10.20;99.90;;;;;;5029978;28;20067;-44
2022/01/29 11:58:23;;;;;;;15.10;3.35;;;10.30;99.90;;;;;;5026265;28;20049;-44
2022/01/29 12:00:51;;;;;;;14.05;3.67;;;10.30;99.90;;;;;;5016111;28;20046;-45
2022/01/29 12:03:55;;;;;;;14.27;3.85;;;10.30;99.90;;;;;;5022861;28;20057;-44
2022/01/29 12:06:25;;;;;;;13.48;2.95;;;10.40;99.90;;;;;;5020213;28;20046;-43
2022/01/29 12:09:07;;;;;;;12.68;3.50;;;10.40;99.90;;;;;;5021364;28;20474;-42
2022/01/29 12:11:34;;;;;;;;;;;10.40;99.90;;;;;;5021950;28;20136;-43
2022/01/29 12:14:26;;;;;;;16.60;3.58;;;10.50;99.90;;;;;;5021961;28;19927;-43
2022/01/29 12:16:55;;;;;;;13.50;2.72;;;10.50;99.90;;;;;;5029234;28;20053;-43
2022/01/29 12:19:39;;;;;;;16.20;3.60;;;10.50;99.90;;;;;;5020165;28;20050;-43
2022/01/29 12:22:11;;;;;;;14.95;2.90;;;10.60;99.90;;;;;;5021557;28;20058;-43
2022/01/29 12:24:37;;;;;;;17.35;2.85;;;10.60;99.90;;;;;;5025078;28;20140;-43
2022/01/29 12:27:04;;;;;;;17.45;4.57;;;10.60;99.90;;;;;;5025478;28;20401;-42
2022/01/29 12:29:33;;;;;;;15.38;4.05;;;10.70;99.90;;;;;;5022020;28;20478;-43
2022/01/29 12:31:59;;;;;;;20.38;3.20;;;10.70;99.90;;;;;;5016320;28;20060;-43
2022/01/29 12:34:27;;;;;;;13.15;3.03;;;10.70;99.90;;;;;;5023084;28;20068;-43
2022/01/29 12:37:06;;;;;;;11.15;2.50;;;10.80;99.90;;;;;;5028047;28;20088;-43
2022/01/29 12:39:33;;;;;;;15.50;2.63;;;10.80;99.90;;;;;;5029194;28;20053;-44
2022/01/29 12:42:05;;;;;;;14.68;2.88;;;10.80;99.90;;;;;;5032360;28;20056;-43
2022/01/29 12:44:33;;;;;;;14.68;3.20;;;10.80;99.90;;;;;;5030210;28;20041;-44
2022/01/29 12:47:00;;;;;;;14.35;2.75;;;10.80;99.90;;;;;;5029637;28;20076;-43
2022/01/29 12:49:26;;;;;;;22.52;3.47;;;10.80;99.90;;;;;;5027463;28;20059;-44
2022/01/29 12:51:53;;;;;;;11.52;3.13;;;10.90;99.90;;;;;;5020838;28;20454;-43
2022/01/29 12:54:21;;;;;;;17.40;3.45;;;10.80;99.90;;;;;;5028713;28;20049;-45